EDFH/HHN METAR and TAF weather

Enter ICAO airport designator
Station Type Date Time Source
EDFH METAR 2022/01/23 12:20 UTC NOAA

EDFH 231220Z 10004KT 060V130 9999 BKN010 02/00 Q1034


Station Type Date Time Source
EDFH Decoded METAR 2022/01/23 12:20 UTC NOAA

Hahn, Germany (EDFH) 49-57N 007-16E 498M
Jan 23, 2022 - 07:20 AM EST / 2022.01.23 1220 UTC
Wind: from the E (100 degrees) at 5 MPH (4 KT) (direction variable):0
Visibility: greater than 7 mile(s):0
Sky conditions: mostly cloudy
Temperature: 35 F (2 C)
Windchill: 30 F (-1 C):1
Dew Point: 32 F (0 C)
Relative Humidity: 86%
Pressure (altimeter): 30.53 in. Hg (1034 hPa)
ob: EDFH 231220Z 10004KT 060V130 9999 BKN010 02/00 Q1034
cycle: 12

Station Type Date Time Source
EDFH TAF 2022/01/23 12:27 UTC NOAA

TAF EDFH 231100Z 2312/2412 10006KT 9999 BKN010
BECMG 2312/2315 SCT015 PROB30
TEMPO 2402/2408 0200 FZFG BKN001

Example: see airport list